Etusivu
METAR-TAF:

METAR-TAF

Lentoasemat :

Visbyn lentoasema

Visby, Gotlanti, Ruotsi

Leveyspiiri: 57-40N, Pituuspiiri: 018-21E, korkeus merenpinnasta: 51 m

Tämänhetkinen sää

Tämä raportti tehtiin 17 minuuttia sitten, kello 00.50 UTC
Tuuli 10 kn luoteesta
Lämpötila 21°C
Kosteus 60%
Ilmanpaine 1008 hPa
Näkyvyys 10 km tai enemmän

METAR: ESSV 220050Z AUTO 32010KT 9999 NCD 21/13 Q1008

Aika: 03:07 (01:07 UTC)

Sääennuste

Tämä raportti tehtiin 10 tuntia ja 37 minuuttia sitten, kello 14.30 UTC
Ennuste voimassa 21. päivästä klo 15 UTC - 21. päivään klo 19 UTC
Tuuli 8 kn lännestä/lounaasta
Näkyvyys 10 km tai enemmän
ei pilviä alle 1500 m:ssä eikä cumulonimbus-pilviä

TAF: ESSV 211430Z 2115/2119 24008KT CAVOK

Säähavainnot ja -ennusteet yli 4000 lentoasemalta (METAR- ja TAF-raportit).

Käytössä olevat sääasemat on merkitty karttaan keltaisilla ja punaisilla pisteillä.

Aseta hiiri pisteen päälle nähdäksesi sääaseman nimen.

Klikkaa sitten nähdäksesi säähavainnot ja -ennusteet.

Kartan vaihtaminen: klikkaa mustalla rastilla varustettuja vihreitä pisteitä, niin voit zoomata sisään; viivalla varustettua vihreää pistettä, niin voit zoomata ulos tai vihreitä nuolia, niin pääset viereisille kartoille.


METAR-TAF: